1999 Severe Tropical Cyclone JOHN (1999343S11123)


IBTrACS version v04r00. Visit IBTrACS website for data access.
Please direct all questions to the IBTrACS Q and A forum

Storm track - Intensity - Wind Radii - Intensity Data - Source Data - All data

Summary Information

Satellite image near maximum intensity
Storm ID 1999343S11123
Start Dec 9 07Z
Landfall Dec 15 00Z
Max Intensity 130 kt (Dec 14 12Z), 915 mb (Dec 14 01Z)
End Dec 16 01Z
ATCF IDs ,SH022000
Track status Best track data.

Storm track plot

Map of storm track

Intensity plots

Map of storm track

Radial wind information

Map of storm track

Position and Intensity Table

BASIN ISO_TIME_________ NATURE LAT LON WMO WIND WMO PRES USA WIND BOM WIND BOM PRES NEUMANN WIND
degrees north degrees east kts mb kts kts mb kts
SI 1999-12-09 07:00:00 NR -10.50 122.50 25 1003 25 1003
SI 09:00:00 NR -10.49 122.24 25 1003
SI 10:00:00 NR -10.50 122.10 25 1003 25 1003
SI 12:00:00 NR -10.58 121.78 25 1003
SI 15:00:00 NR -10.81 121.32 25 1003
SI 16:00:00 NR -10.90 121.20 25 1003 25 1003
SI 18:00:00 NR -11.10 121.05 25 1002
SI 19:00:00 NR -11.20 121.00 25 1002 25 1002
SI 21:00:00 NR -11.41 120.93 25 1002
SI 22:00:00 NR -11.50 120.90 25 1002 25 1002
SI 1999-12-10 00:00:00 NR -11.60 120.83 25 1002
SI 03:00:00 NR -11.78 120.73 25 1002
SI 04:00:00 NR -11.90 120.70 25 1002 25 1002
SI 06:00:00 TS -12.65 120.22 25 25 1000 25
SI 07:00:00 TS -12.87 119.99 25 1000 25 25 1000 25
SI 09:00:00 TS -12.90 119.86 25 25 1000 25
SI 10:00:00 TS -12.89 119.78 25 1000 25 25 1000 25
SI 12:00:00 TS -12.84 119.80 25 25 1000 25
SI 15:00:00 TS -12.79 119.86 25 25 1000 25
SI 16:00:00 TS -12.78 119.88 25 1000 25 25 1000 25
SI 18:00:00 TS -12.77 119.92 25 26 999 25
SI 21:00:00 TS -12.79 120.00 25 29 998 25
SI 22:00:00 TS -12.81 120.02 30 998 25 30 998 25
SI 1999-12-11 00:00:00 TS -12.86 120.08 25 30 998 25
SI 03:00:00 TS -12.98 120.13 25 30 998 25
SI 04:00:00 TS -13.03 120.14 30 998 25 30 998 25
SI 06:00:00 TS -13.10 120.14 25 30 998 25
SI 07:00:00 TS -13.12 120.13 30 998 25 30 998 25
SI 09:00:00 TS -13.18 120.07 25 30 998 25
SI 10:00:00 TS -13.21 120.03 30 998 25 30 998 25
SI 12:00:00 TS -13.27 119.97 25 33 996 25
SI 13:00:00 TS -13.31 119.93 35 995 26 35 995 26
SI 15:00:00 TS -13.44 119.82 30 35 995 30
SI 16:00:00 TS -13.52 119.76 35 995 31 35 995 31
SI 18:00:00 TS -13.66 119.64 35 44 988 35
SI 19:00:00 TS -13.71 119.59 50 985 36 50 985 36
SI 21:00:00 TS -13.82 119.50 40 50 985 40
SI 22:00:00 TS -13.88 119.45 50 985 41 50 985 41
SI 1999-12-12 00:00:00 TS -13.99 119.35 45 53 981 45
SI 01:00:00 TS -14.05 119.31 55 980 45 55 980 45
SI 03:00:00 TS -14.21 119.28 47 58 976 47
SI 04:00:00 TS -14.29 119.28 60 975 48 60 975 48
SI 06:00:00 TS -14.46 119.27 50 60 975 50
SI 07:00:00 TS -14.54 119.26 60 975 52 60 975 52
SI 09:00:00 TS -14.69 119.27 57 60 975 57
SI 10:00:00 TS -14.77 119.27 60 975 60 60 975 60
SI 12:00:00 TS -14.94 119.27 65 60 975 65
SI 13:00:00 TS -15.02 119.26 60 975 65 60 975 65
SI 15:00:00 TS -15.20 119.22 65 60 975 65
SI 16:00:00 TS -15.29 119.20 60 975 65 60 975 65
SI 18:00:00 TS -15.50 119.14 65 60 975 65
SI 19:00:00 TS -15.61 119.12 60 975 65 60 975 65
SI 21:00:00 TS -15.84 119.09 67 63 971 67
SI 22:00:00 TS -15.95 119.06 65 970 68 65 970 68
SI 1999-12-13 00:00:00 TS -16.19 118.94 70 68 966 70
SI 01:00:00 TS -16.30 118.85 70 965 71 70 965 71
SI 03:00:00 TS -16.48 118.66 75 70 965 75
SI 04:00:00 TS -16.56 118.57 70 965 76 70 965 76
SI 06:00:00 TS -16.71 118.46 80 70 965 80
SI 07:00:00 TS -16.79 118.43 70 965 81 70 965 81
SI 09:00:00 TS -16.97 118.37 85 73 965 85
SI 10:00:00 TS -17.06 118.33 75 965 86 75 965 86
SI 12:00:00 TS -17.21 118.26 90 78 961 90
SI 13:00:00 TS -17.29 118.21 80 960 93 80 960 93
SI 15:00:00 TS -17.44 118.12 100 83 953 100
SI 16:00:00 TS -17.52 118.08 85 950 103 85 950 103
SI 18:00:00 TS -17.68 118.01 110 91 943 110
SI 19:00:00 TS -17.75 117.97 95 940 110 95 940 110
SI 21:00:00 TS -17.90 117.86 112 98 933 112
SI 22:00:00 TS -17.98 117.80 100 930 113 100 930 113
SI 1999-12-14 00:00:00 TS -18.16 117.69 115 106 920 115
SI 01:00:00 TS -18.26 117.64 110 915 115 110 915 115
SI 03:00:00 TS -18.45 117.57 117 110 915 117
SI 04:00:00 TS -18.55 117.54 110 915 118 110 915 118
SI 06:00:00 TS -18.79 117.48 120 110 915 120
SI 07:00:00 TS -18.92 117.44 110 915 121 110 915 121
SI 09:00:00 TS -19.17 117.37 125 110 915 125
SI 10:00:00 TS -19.29 117.33 110 915 126 110 915 126
SI 12:00:00 TS -19.53 117.30 130 110 915 130
SI 13:00:00 TS -19.64 117.29 110 915 130 110 915 130
SI 15:00:00 TS -19.84 117.27 130 110 915 130
SI 16:00:00 TS -19.94 117.28 110 915 130 110 915 130
SI 18:00:00 TS -20.13 117.32 130 103 924 130
SI 19:00:00 TS -20.24 117.35 100 930 130 100 930 130
SI 21:00:00 TS -20.48 117.44 130 100 936 130
SI 22:00:00 TS -20.61 117.48 100 940 130 100 940 130
SI 1999-12-15 00:00:00 TS -20.83 117.59 130 93 946 130
SI 01:00:00 TS -20.95 117.64 90 950 127 90 950 127
SI 03:00:00 TS -21.19 117.76 122 80 956 122
SI 04:00:00 TS -21.32 117.83 75 960 119 75 960 119
SI 06:00:00 TS -21.56 117.97 115 68 966 115
SI 07:00:00 TS -21.67 118.06 65 970 109 65 970 109
SI 09:00:00 TS -21.87 118.29 97 61 970 97
SI 10:00:00 TS -21.96 118.42 60 970 91 60 970 91
SI 12:00:00 TS -22.14 118.69 80 56 973 80
SI 13:00:00 TS -22.25 118.83 55 975 71 55 975 71
SI 15:00:00 TS -22.46 119.11 55 51 978 55
SI 16:00:00 TS -22.56 119.24 50 980 46 50 980 46
SI 18:00:00 TS -22.73 119.50 30 46 983 30
SI 19:00:00 NR -22.70 119.60 45 985 45 985
SI 21:00:00 NR -22.97 120.00 38 988
SI 22:00:00 NR -23.10 120.20 35 990 35 990
SI 1999-12-16 00:00:00 NR -23.31 120.49 31 993
SI 01:00:00 NR -23.40 120.60 30 995 30 995

Source Information

Agency Information
USA bsh022000.txt
TOKYO
CMA
HKO
NEWDELHI
REUNION
BOM IDCKMSTM0S.csv:Line=20434:JOHN
NADI
WELLINGTON
DS824
TD9636
TD9635
NEUMANN tracks.sh:Storm=1176:JOHN:02S:BSH022000
MLC

All available IBTrACS Data

SEASON BASIN SUBBASIN ISO_TIME_________ NATURE LAT LON WMO WIND WMO PRES WMO AGENCY DIST2LAND LANDFALL IFLAG USA AGENCY USA ATCF_ID USA LAT USA LON USA WIND USA SSHS BOM LAT BOM LON BOM TYPE BOM WIND BOM PRES BOM CI BOM ROCI NEUMANN LAT NEUMANN LON NEUMANN CLASS NEUMANN WIND STORM SPEED STORM DIR
Year degrees north degrees east kts mb km km degrees north degrees east kts 1 degrees north degrees east kts mb 1 nmile degrees north degrees east kts kts degrees
2000 SI WA 1999-12-09 07:00:00 NR -10.50 122.50 25 1003 bom 110 110 ______O_______ -1 -10.50 122.50 20 25 1003 1.50 268 8 273
2000 SI WA 09:00:00 NR -10.49 122.24 142 142 ______P_______ -1 -10.49 122.24 20 25 1003 268 8 270
2000 SI WA 10:00:00 NR -10.50 122.10 25 1003 bom 152 128 ______O_______ -1 -10.50 122.10 20 25 1003 1.50 268 9 259
2000 SI WA 12:00:00 NR -10.58 121.78 128 93 ______P_______ -1 -10.58 121.78 20 25 1003 268 10 248
2000 SI WA 15:00:00 NR -10.81 121.32 93 93 ______P_______ -1 -10.81 121.32 20 25 1003 268 10 241
2000 SI WA 16:00:00 NR -10.90 121.20 25 1003 bom 95 95 ______O_______ -1 -10.90 121.20 20 25 1003 1.50 268 8 222
2000 SI WA 18:00:00 NR -11.10 121.05 104 104 ______P_______ -1 -11.10 121.05 20 25 1002 268 7 213
2000 SI WA 19:00:00 NR -11.20 121.00 25 1002 bom 114 114 ______O_______ -1 -11.20 121.00 20 25 1002 1.50 268 7 201
2000 SI WA 21:00:00 NR -11.41 120.93 130 130 ______P_______ -1 -11.41 120.93 20 25 1002 268 6 197
2000 SI WA 22:00:00 NR -11.50 120.90 25 1002 bom 141 141 ______O_______ -1 -11.50 120.90 20 25 1002 1.50 268 4 205
2000 SI WA 1999-12-10 00:00:00 NR -11.60 120.83 149 149 ______P_______ -1 -11.60 120.83 20 25 1002 268 4 211
2000 SI WA 03:00:00 NR -11.78 120.73 169 169 ______P_______ -1 -11.78 120.73 20 25 1002 268 5 204
2000 SI WA 04:00:00 NR -11.90 120.70 25 1002 bom 180 180 ______O_______ -1 -11.90 120.70 20 25 1002 1.50 268 20 210
2000 SI WA 06:00:00 TS -12.65 120.22 270 270 O_____P_____O_ jtwc_sh SH022000 -13.30 119.40 25 -1 -12.33 120.62 20 25 1000 268 -13.30 119.40 TC 25 24 215
2000 SI WA 07:00:00 TS -12.87 119.99 25 1000 bom 296 296 P_____O_____P_ SH022000 -13.23 119.39 25 -1 -12.50 120.60 20 25 1000 2.00 268 -13.23 119.39 TC 25 8 235
2000 SI WA 09:00:00 TS -12.90 119.86 298 298 P_____P_____P_ SH022000 -13.10 119.37 25 -1 -12.59 120.60 20 25 1000 268 -13.10 119.37 TC 25 4 264
2000 SI WA 10:00:00 TS -12.89 119.78 25 1000 bom 301 290 P_____O_____P_ SH022000 -13.03 119.37 25 -1 -12.60 120.60 20 25 1000 2.00 268 -13.03 119.37 TC 25 2 310
2000 SI WA 12:00:00 TS -12.84 119.80 290 287 O_____P_____O_ jtwc_sh SH022000 -12.90 119.40 25 -1 -12.72 120.59 20 25 1000 268 -12.90 119.40 TC 25 1 39
2000 SI WA 15:00:00 TS -12.79 119.86 287 287 P_____P_____P_ SH022000 -12.72 119.52 25 -1 -12.93 120.54 20 25 1000 268 -12.72 119.52 TC 25 2 56
2000 SI WA 16:00:00 TS -12.78 119.88 25 1000 bom 287 287 P_____O_____P_ SH022000 -12.67 119.58 25 -1 -13.00 120.50 20 25 1000 2.00 268 -12.67 119.58 TC 25 1 74
2000 SI WA 18:00:00 TS -12.77 119.92 287 285 O_____P_____O_ jtwc_sh SH022000 -12.60 119.70 25 -1 -13.11 120.37 20 26 999 268 -12.60 119.70 TC 25 1 95
2000 SI WA 21:00:00 TS -12.79 120.00 285 285 P_____P_____P_ SH022000 -12.56 119.91 25 -1 -13.26 120.16 20 29 998 268 -12.56 119.91 TC 25 2 110
2000 SI WA 22:00:00 TS -12.81 120.02 30 998 bom 285 283 P_____O_____P_ SH022000 -12.56 119.98 25 -1 -13.30 120.10 20 30 998 2.50 268 -12.56 119.98 TC 25 2 135
2000 SI WA 1999-12-11 00:00:00 TS -12.86 120.08 294 294 O_____P_____O_ jtwc_sh SH022000 -12.60 120.10 25 -1 -13.39 120.04 20 30 998 268 -12.60 120.10 TC 25 2 150
2000 SI WA 03:00:00 TS -12.98 120.13 305 305 P_____P_____P_ SH022000 -12.73 120.19 25 -1 -13.48 120.00 20 30 998 268 -12.73 120.19 TC 25 3 163
2000 SI WA 04:00:00 TS -13.03 120.14 30 998 bom 305 305 P_____O_____P_ SH022000 -12.79 120.21 25 -1 -13.50 120.00 20 30 998 2.50 268 -12.79 120.21 TC 25 2 0
2000 SI WA 06:00:00 TS -13.10 120.14 316 316 O_____P_____O_ jtwc_sh SH022000 -12.90 120.20 25 -1 -13.50 120.01 20 30 998 268 -12.90 120.20 TC 25 2 196
2000 SI WA 07:00:00 TS -13.12 120.13 30 998 bom 316 316 P_____O_____P_ SH022000 -12.93 120.19 25 -1 -13.50 120.00 20 30 998 2.50 268 -12.93 120.19 TC 25 2 219
2000 SI WA 09:00:00 TS -13.18 120.07 327 327 P_____P_____P_ SH022000 -12.98 120.14 25 -1 -13.57 119.93 20 30 998 268 -12.98 120.14 TC 25 3 224
2000 SI WA 10:00:00 TS -13.21 120.03 30 998 bom 329 329 P_____O_____P_ SH022000 -13.02 120.10 25 -1 -13.60 119.90 20 30 998 2.50 268 -13.02 120.10 TC 25 3 229
2000 SI WA 12:00:00 TS -13.27 119.97 340 340 O_____P_____O_ jtwc_sh SH022000 -13.10 120.00 25 -1 -13.60 119.90 20 33 996 268 -13.10 120.00 TC 25 3 226
2000 SI WA 13:00:00 TS -13.31 119.93 35 995 bom 342 342 P_____O_____P_ SH022000 -13.17 119.94 26 -1 -13.60 119.90 30 35 995 3.00 268 -13.17 119.94 TC 26 5 220
2000 SI WA 15:00:00 TS -13.44 119.82 355 355 P_____P_____P_ SH022000 -13.34 119.81 30 -1 -13.66 119.84 30 35 995 268 -13.34 119.81 TC 30 5 220
2000 SI WA 16:00:00 TS -13.52 119.76 35 995 bom 366 366 P_____O_____P_ SH022000 -13.42 119.74 31 -1 -13.70 119.80 30 35 995 3.00 268 -13.42 119.74 TC 31 5 219
2000 SI WA 18:00:00 TS -13.66 119.64 393 393 O_____P_____O_ jtwc_sh SH022000 -13.60 119.60 35 0 -13.77 119.73 30 44 988 268 -13.60 119.60 TC 35 5 219
2000 SI WA 19:00:00 TS -13.71 119.59 50 985 bom 393 393 P_____O_____P_ SH022000 -13.67 119.54 36 0 -13.80 119.70 30 50 985 3.50 268 -13.67 119.54 TC 36 4 221
2000 SI WA 21:00:00 TS -13.82 119.50 406 406 P_____P_____P_ SH022000 -13.80 119.43 40 0 -13.87 119.64 30 50 985 268 -13.80 119.43 TC 40 4 220
2000 SI WA 22:00:00 TS -13.88 119.45 50 985 bom 417 417 P_____O_____P_ SH022000 -13.86 119.38 41 0 -13.90 119.60 30 50 985 3.50 268 -13.86 119.38 TC 41 4 221
2000 SI WA 1999-12-12 00:00:00 TS -13.99 119.35 431 431 O_____P_____O_ jtwc_sh SH022000 -14.00 119.30 45 0 -13.96 119.46 30 53 981 268 -14.00 119.30 TC 45 4 218
2000 SI WA 01:00:00 TS -14.05 119.31 55 980 bom 445 445 P_____O_____P_ SH022000 -14.08 119.27 45 0 -14.00 119.40 30 55 980 4.00 268 -14.08 119.27 TC 45 5 197
2000 SI WA 03:00:00 TS -14.21 119.28 455 448 P_____P_____P_ SH022000 -14.25 119.23 47 0 -14.12 119.39 30 58 976 268 -14.25 119.23 TC 47 5 190
2000 SI WA 04:00:00 TS -14.29 119.28 60 975 bom 448 433 P_____O_____P_ SH022000 -14.34 119.21 48 0 -14.20 119.40 30 60 975 4.00 268 -14.34 119.21 TC 48 5 186
2000 SI WA 06:00:00 TS -14.46 119.27 433 433 O_____P_____O_ jtwc_sh SH022000 -14.50 119.20 50 0 -14.39 119.40 30 60 975 268 -14.50 119.20 TC 50 5 0
2000 SI WA 07:00:00 TS -14.54 119.26 60 975 bom 433 418 P_____O_____P_ SH022000 -14.57 119.20 52 0 -14.50 119.40 30 60 975 4.00 268 -14.57 119.20 TC 52 5 184
2000 SI WA 09:00:00 TS -14.69 119.27 418 411 P_____P_____P_ SH022000 -14.69 119.20 57 0 -14.70 119.40 30 60 975 268 -14.69 119.20 TC 57 5 174
2000 SI WA 10:00:00 TS -14.77 119.27 60 975 bom 411 404 P_____O_____P_ SH022000 -14.76 119.20 60 0 -14.80 119.40 30 60 975 4.00 268 -14.76 119.20 TC 60 5 0
2000 SI WA 12:00:00 TS -14.94 119.27 404 397 O_____P_____O_ jtwc_sh SH022000 -14.90 119.20 65 1 -15.01 119.41 30 60 975 268 -14.90 119.20 TC 65 5 182
2000 SI WA 13:00:00 TS -15.02 119.26 60 975 bom 397 391 P_____O_____P_ SH022000 -14.99 119.19 65 1 -15.10 119.40 30 60 975 4.00 268 -14.99 119.19 TC 65 5 189
2000 SI WA 15:00:00 TS -15.20 119.22 393 387 P_____P_____P_ SH022000 -15.18 119.16 65 1 -15.23 119.34 30 60 975 268 -15.18 119.16 TC 65 5 191
2000 SI WA 16:00:00 TS -15.29 119.20 60 975 bom 387 376 P_____O_____P_ SH022000 -15.28 119.15 65 1 -15.30 119.30 30 60 975 4.00 268 -15.28 119.15 TC 65 6 195
2000 SI WA 18:00:00 TS -15.50 119.14 385 380 O_____P_____O_ jtwc_sh SH022000 -15.50 119.10 65 1 -15.49 119.23 30 60 975 268 -15.50 119.10 TC 65 7 194
2000 SI WA 19:00:00 TS -15.61 119.12 60 975 bom 380 370 P_____O_____P_ SH022000 -15.62 119.08 65 1 -15.60 119.20 30 60 975 4.00 268 -15.62 119.08 TC 65 7 187
2000 SI WA 21:00:00 TS -15.84 119.09 370 365 P_____P_____P_ SH022000 -15.86 119.03 67 1 -15.79 119.22 30 63 971 268 -15.86 119.03 TC 67 7 189
2000 SI WA 22:00:00 TS -15.95 119.06 65 970 bom 360 360 P_____O_____P_ SH022000 -15.98 119.00 68 1 -15.90 119.20 40 65 970 4.50 268 -15.98 119.00 TC 68 8 203
2000 SI WA 1999-12-13 00:00:00 TS -16.19 118.94 372 368 O_____P_____O_ jtwc_sh SH022000 -16.20 118.90 70 1 -16.17 119.02 40 68 966 268 -16.20 118.90 TC 70 8 211
2000 SI WA 01:00:00 TS -16.30 118.85 70 965 bom 368 368 P_____O_____P_ SH022000 -16.29 118.83 71 1 -16.30 118.90 40 70 965 4.50 268 -16.29 118.83 TC 71 8 223
2000 SI WA 03:00:00 TS -16.48 118.66 381 381 P_____P_____P_ SH022000 -16.47 118.65 75 1 -16.51 118.68 40 70 965 268 -16.47 118.65 TC 75 8 225
2000 SI WA 04:00:00 TS -16.56 118.57 70 965 bom 388 385 P_____O_____P_ SH022000 -16.54 118.56 76 1 -16.60 118.60 40 70 965 4.50 268 -16.54 118.56 TC 76 6 219
2000 SI WA 06:00:00 TS -16.71 118.46 385 376 O_____P_____O_ jtwc_sh SH022000 -16.70 118.40 80 1 -16.73 118.59 40 70 965 268 -16.70 118.40 TC 80 5 211
2000 SI WA 07:00:00 TS -16.79 118.43 70 965 bom 376 354 P_____O_____P_ SH022000 -16.78 118.35 81 1 -16.80 118.60 40 70 965 4.50 268 -16.78 118.35 TC 81 6 199
2000 SI WA 09:00:00 TS -16.97 118.37 354 354 P_____P_____P_ SH022000 -16.95 118.28 85 2 -17.00 118.55 40 73 965 268 -16.95 118.28 TC 85 6 199
2000 SI WA 10:00:00 TS -17.06 118.33 75 965 bom 346 335 P_____O_____P_ SH022000 -17.03 118.25 86 2 -17.10 118.50 40 75 965 4.50 268 -17.03 118.25 TC 86 5 202
2000 SI WA 12:00:00 TS -17.21 118.26 335 327 O_____P_____O_ jtwc_sh SH022000 -17.20 118.20 90 2 -17.24 118.37 40 78 961 268 -17.20 118.20 TC 90 5 206
2000 SI WA 13:00:00 TS -17.29 118.21 80 960 bom 327 316 P_____O_____P_ SH022000 -17.28 118.17 93 2 -17.30 118.30 40 80 960 5.00 268 -17.28 118.17 TC 93 5 208
2000 SI WA 15:00:00 TS -17.44 118.12 319 309 P_____P_____P_ SH022000 -17.45 118.11 100 3 -17.43 118.16 40 83 953 268 -17.45 118.11 TC 100 5 208
2000 SI WA 16:00:00 TS -17.52 118.08 85 950 bom 309 292 P_____O_____P_ SH022000 -17.53 118.07 103 3 -17.50 118.10 40 85 950 5.00 268 -17.53 118.07 TC 103 5 204
2000 SI WA 18:00:00 TS -17.68 118.01 292 292 O_____P_____O_ jtwc_sh SH022000 -17.70 118.00 110 3 -17.63 118.04 40 91 943 268 -17.70 118.00 TC 110 5 205
2000 SI WA 19:00:00 TS -17.75 117.97 95 940 bom 282 276 P_____O_____P_ SH022000 -17.78 117.95 110 3 -17.70 118.00 40 95 940 5.50 268 -17.78 117.95 TC 110 5 214
2000 SI WA 21:00:00 TS -17.90 117.86 276 270 P_____P_____P_ SH022000 -17.94 117.85 112 3 -17.83 117.87 40 98 933 268 -17.94 117.85 TC 112 6 216
2000 SI WA 22:00:00 TS -17.98 117.80 100 930 bom 270 260 P_____O_____P_ SH022000 -18.03 117.80 113 4 -17.90 117.80 40 100 930 6.00 268 -18.03 117.80 TC 113 6 212
2000 SI WA 1999-12-14 00:00:00 TS -18.16 117.69 249 249 O_____P_____O_ jtwc_sh SH022000 -18.20 117.70 115 4 -18.09 117.66 40 106 920 268 -18.20 117.70 TC 115 6 209
2000 SI WA 01:00:00 TS -18.26 117.64 110 915 bom 240 229 P_____O_____P_ SH022000 -18.29 117.66 115 4 -18.20 117.60 40 110 915 6.50 268 -18.29 117.66 TC 115 6 202
2000 SI WA 03:00:00 TS -18.45 117.57 229 218 P_____P_____P_ SH022000 -18.48 117.59 117 4 -18.39 117.53 40 110 915 268 -18.48 117.59 TC 117 6 198
2000 SI WA 04:00:00 TS -18.55 117.54 110 915 bom 210 189 P_____O_____P_ SH022000 -18.58 117.56 118 4 -18.50 117.50 40 110 915 6.50 268 -18.58 117.56 TC 118 7 194
2000 SI WA 06:00:00 TS -18.79 117.48 189 179 O_____P_____O_ jtwc_sh SH022000 -18.80 117.50 120 4 -18.77 117.43 40 110 915 268 -18.80 117.50 TC 120 8 194
2000 SI WA 07:00:00 TS -18.92 117.44 110 915 bom 183 162 P_____O_____P_ SH022000 -18.93 117.46 121 4 -18.90 117.40 40 110 915 6.50 268 -18.93 117.46 TC 121 8 196
2000 SI WA 09:00:00 TS -19.17 117.37 152 148 P_____P_____P_ SH022000 -19.20 117.39 125 4 -19.11 117.33 40 110 915 268 -19.20 117.39 TC 125 8 195
2000 SI WA 10:00:00 TS -19.29 117.33 110 915 bom 148 128 P_____O_____P_ SH022000 -19.34 117.35 126 4 -19.20 117.30 40 110 915 6.50 268 -19.34 117.35 TC 126 7 191
2000 SI WA 12:00:00 TS -19.53 117.30 128 118 O_____P_____O_ jtwc_sh SH022000 -19.60 117.30 130 4 -19.40 117.29 40 110 915 268 -19.60 117.30 TC 130 7 187
2000 SI WA 13:00:00 TS -19.64 117.29 110 915 bom 118 100 P_____O_____P_ SH022000 -19.71 117.28 130 4 -19.50 117.30 40 110 915 6.50 268 -19.71 117.28 TC 130 6 0
2000 SI WA 15:00:00 TS -19.84 117.27 100 90 P_____P_____P_ SH022000 -19.91 117.26 130 4 -19.70 117.29 40 110 915 268 -19.91 117.26 TC 130 6 0
2000 SI WA 16:00:00 TS -19.94 117.28 110 915 bom 90 67 P_____O_____P_ SH022000 -20.00 117.27 130 4 -19.80 117.30 40 110 915 6.50 268 -20.00 117.27 TC 130 6 171
2000 SI WA 18:00:00 TS -20.13 117.32 67 56 O_____P_____O_ jtwc_sh SH022000 -20.20 117.30 130 4 -19.99 117.36 40 103 924 268 -20.20 117.30 TC 130 6 166
2000 SI WA 19:00:00 TS -20.24 117.35 100 930 bom 59 30 P_____O_____P_ SH022000 -20.31 117.33 130 4 -20.10 117.40 40 100 930 6.00 268 -20.31 117.33 TC 130 7 164
2000 SI WA 21:00:00 TS -20.48 117.44 30 22 P_____P_____P_ SH022000 -20.54 117.42 130 4 -20.37 117.47 40 100 936 268 -20.54 117.42 TC 130 8 161
2000 SI WA 22:00:00 TS -20.61 117.48 100 940 bom 22 0 P_____O_____P_ SH022000 -20.66 117.48 130 4 -20.50 117.50 40 100 940 6.00 268 -20.66 117.48 TC 130 8 158
2000 SI WA 1999-12-15 00:00:00 TS -20.83 117.59 0 0 O_____P_____O_ jtwc_sh SH022000 -20.90 117.60 130 4 -20.70 117.56 40 93 946 268 -20.90 117.60 TC 130 7 157
2000 SI WA 01:00:00 TS -20.95 117.64 90 950 bom 0 0 P_____O_____P_ SH022000 -21.02 117.65 127 4 -20.80 117.60 40 90 950 268 -21.02 117.65 TC 127 8 156
2000 SI WA 03:00:00 TS -21.19 117.76 0 0 P_____P_____P_ SH022000 -21.26 117.77 122 4 -21.06 117.73 40 80 956 268 -21.26 117.77 TC 122 8 154
2000 SI WA 04:00:00 TS -21.32 117.83 75 960 bom 0 0 P_____O_____P_ SH022000 -21.37 117.84 119 4 -21.20 117.80 40 75 960 268 -21.37 117.84 TC 119 8 151
2000 SI WA 06:00:00 TS -21.56 117.97 0 0 O_____P_____O_ jtwc_sh SH022000 -21.60 118.00 115 4 -21.47 117.92 40 68 966 268 -21.60 118.00 TC 115 8 148
2000 SI WA 07:00:00 TS -21.67 118.06 65 970 bom 0 0 P_____O_____P_ SH022000 -21.70 118.09 109 3 -21.60 118.00 40 65 970 268 -21.70 118.09 TC 109 9 136
2000 SI WA 09:00:00 TS -21.87 118.29 0 0 P_____P_____P_ SH022000 -21.89 118.31 97 3 -21.81 118.26 40 61 970 268 -21.89 118.31 TC 97 9 131
2000 SI WA 10:00:00 TS -21.96 118.42 60 970 bom 0 0 P_____O_____P_ SH022000 -21.99 118.43 91 2 -21.90 118.40 30 60 970 268 -21.99 118.43 TC 91 9 127
2000 SI WA 12:00:00 TS -22.14 118.69 0 0 O_____P_____O_ jtwc_sh SH022000 -22.20 118.70 80 1 -22.03 118.67 30 56 973 268 -22.20 118.70 TC 80 9 127
2000 SI WA 13:00:00 TS -22.25 118.83 55 975 bom 0 0 P_____O_____P_ SH022000 -22.32 118.84 71 1 -22.10 118.80 30 55 975 268 -22.32 118.84 TC 71 10 130
2000 SI WA 15:00:00 TS -22.46 119.11 0 0 P_____P_____P_ SH022000 -22.58 119.14 55 0 -22.29 119.07 30 51 978 268 -22.58 119.14 TC 55 10 129
2000 SI WA 16:00:00 TS -22.56 119.24 50 980 bom 0 0 P_____O_____P_ SH022000 -22.72 119.29 46 0 -22.40 119.20 30 50 980 268 -22.72 119.29 TC 46 9 126
2000 SI WA 18:00:00 TS -22.73 119.50 0 0 O_____P_____O_ jtwc_sh SH022000 -23.00 119.60 30 -1 -22.59 119.45 30 46 983 268 -23.00 119.60 TC 30 7 113
2000 SI WA 19:00:00 NR -22.70 119.60 45 985 bom 0 0 ______O_______ SH022000 -1 -22.70 119.60 30 45 985 268 TC 10 117
2000 SI WA 21:00:00 NR -22.97 120.00 0 0 ______P_______ SH022000 -1 -22.97 120.00 30 38 988 268 TC 14 126
2000 SI WA 22:00:00 NR -23.10 120.20 35 990 bom 0 0 ______O_______ SH022000 -1 -23.10 120.20 30 35 990 268 TC 11 128
2000 SI WA 1999-12-16 00:00:00 NR -23.31 120.49 0 0 ______P_______ -1 -23.31 120.49 30 31 993 268 10 129
2000 SI WA 01:00:00 NR -23.40 120.60 30 995 bom 0 ______O_______ -1 -23.40 120.60 80 30 995 268 8 131